Terminal Aerodrome Forecast
Issued by NWS

Home | Current Version | Previous Version | Graphics & Text | Print | Product List | Glossary On
Versions: 1 2 3 4 5 6 7 8 9 10 11 12 13 14 15 16 17 18 19 20
364
FTUS43 KTOP 200411 AAA
TAFMHK
TAF AMD
KMHK 200411Z 2004/2024 02007KT P6SM SCT100
     FM200800 35007KT P6SM OVC015
     FM201100 36006KT P6SM OVC008
     FM201600 34006KT P6SM BKN015
     FM202000 35007KT P6SM BKN022=

USA.gov is the U.S. government's official web portal to all federal, state and local government web resources and services.